Aérodrome :
LOGIN :

S'inscrire | Disclaimer

   EN    FR    IT 

 










Légende :    VFR   VFR Marginal   IFR   IFR Intensif   IFR Très Intensif
Visi : 
Plafond : 
>= 8 km
>= 3000ft
5 à 8 km
1000 à 3000 ft
1500m à 5 km
500 à 1000 ft
800 à 1500m
200 à 500 ft
< 800m
< 200 ft
Symboles :   Orages  Brouillard  Fortes neiges  Fortes précipitations  Vent > 20 kt
SIGMETs :   Divers  Orages  Givrage  Turbulence  Onde Orograph.  Cendres Volcan.







- Altitude de l'aérodrome : 37 ft


EHVL - Vlieland Heliport

DERNIER METAR :
  • 231555Z AUTO 09005KT 9999 NCD 17/10 Q1023 BLU

METARs EXPIRÉS :
  • 231525Z AUTO 10005KT 080V140 9999 NCD 17/09 Q1023 BLU
  • 231455Z AUTO 13004KT 080V160 9999 NCD 17/08 Q1023 BLU
  • 231425Z AUTO 13004KT 100V160 9999 NCD 17/09 Q1024 BLU
  • 231355Z AUTO 14005KT 110V180 9999 NCD 16/10 Q1024 RE// BLU
  • 231325Z AUTO 14006KT 110V170 //// // NCD 17/11 Q1024 RE//

Prévision TAF périmée.
Pas de NOTAMs connus pour ce terrain.



MET'MAP, la Météo Aéronautique d'un coup d'oeil ! - Copyright ORBIFLY Décembre 2007 - Disclaimer

ORBIFLY MET'MAP TEAM :

Programmation & Développement : Alexandra Zaïnal
Conception & Développement : Baudouin d'Aumeries
Co-Programmation & Développement : Marc-Olivier Méhu
Soutien technique & logistique : Manuel Goepfert

Contact : metmap@orbifly.com




SOURCES & CREDITS :

   NOAA